Time;durP1;ratioP1;P1;durP2;ratioP2;P2;SDS_P1;SDS_P2;PMS_P1;PMS_P2;Temp;Humidity;BMP_temperature;BMP_pressure;BME280_temperature;BME280_humidity;BME280_pressure;Samples;Min_cycle;Max_cycle;Signal;HPM_P1;HPM_P2
2022/04/22 00:01:37;;;;;;;;;;;;;;;13.54;47.73;99751.53;4983187;28;7346;-75
2022/04/22 00:04:03;;;;;;;;;;;;;;;13.51;47.35;99756.59;4999853;28;6792;-75
2022/04/22 00:06:29;;;;;;;;;;;;;;;13.47;47.46;99750.50;4999798;28;6780;-75
2022/04/22 00:08:55;;;;;;;;;;;;;;;13.43;47.68;99746.09;4999998;28;6831;-75
2022/04/22 00:11:30;;;;;;;;;;;;;;;13.41;47.94;99744.28;4983245;28;7172;-75
2022/04/22 00:13:59;;;;;;;;;;;;;;;13.36;47.79;99744.19;4978698;28;6832;-75
2022/04/22 00:16:28;;;;;;;;;;;;;;;13.33;47.82;99741.53;4965614;28;7267;-75
2022/04/22 00:18:54;;;;;;;;;;;;;;;13.30;47.61;99736.28;4983089;28;9125;-75
2022/04/22 00:21:20;;;;;;;;;;;;;;;13.27;48.36;99737.06;4985212;28;6796;-75
2022/04/22 00:23:47;;;;;;;;;;;;;;;13.26;48.34;99737.06;4983254;28;6792;-75
2022/04/22 00:26:13;;;;;;;;;;;;;;;13.24;48.39;99738.72;4984909;28;8107;-75
2022/04/22 00:28:39;;;;;;;;;;;;;;;13.22;48.28;99735.22;4965497;28;7018;-75
2022/04/22 00:31:05;;;;;;;;;;;;;;;13.20;48.55;99740.34;4983553;28;7113;-75
2022/04/22 00:33:30;;;;;;;;;;;;;;;13.18;48.09;99742.84;4983402;28;6795;-75
2022/04/22 00:35:56;;;;;;;;;;;;;;;13.14;48.82;99735.91;4981724;28;6803;-75
2022/04/22 00:38:22;;;;;;;;;;;;;;;13.12;48.77;99736.69;4983976;28;6894;-75
2022/04/22 00:40:47;;;;;;;;;;;;;;;13.11;48.71;99738.38;4986120;28;6879;-75
2022/04/22 00:43:25;;;;;;;;;;;;;;;13.08;48.63;99740.88;4964257;28;7192;-75
2022/04/22 00:45:54;;;;;;;;;;;;;;;13.05;48.97;99740.78;4981451;28;6984;-75
2022/04/22 00:48:21;;;;;;;;;;;;;;;13.03;48.32;99737.28;4981589;28;6808;-75
2022/04/22 00:50:48;;;;;;;;;;;;;;;12.98;48.68;99733.72;4986369;28;7019;-75
2022/04/22 00:53:14;;;;;;;;;;;;;;;12.95;48.89;99738.81;4987737;28;7899;-75
2022/04/22 00:55:43;;;;;;;;;;;;;;;12.89;49.09;99729.19;4985289;28;8174;-75
2022/04/22 00:58:10;;;;;;;;;;;;;;;12.83;48.58;99719.59;4966877;28;6808;-75
2022/04/22 01:00:38;;;;;;;;;;;;;;;12.79;49.15;99725.50;4997788;28;9784;-75
2022/04/22 01:03:05;;;;;;;;;;;;;;;12.75;49.04;99718.53;4989129;28;6999;-75
2022/04/22 01:11:02;;;;;;;;;;;;;;;12.61;49.30;99716.44;4986913;28;6978;-75
2022/04/22 01:13:28;;;;;;;;;;;;;;;12.58;49.17;99708.63;5000166;28;7113;-75
2022/04/22 01:15:55;;;;;;;;;;;;;;;12.57;49.78;99703.44;4969618;28;7213;-75
2022/04/22 01:18:21;;;;;;;;;;;;;;;12.54;50.21;99705.94;4985771;28;7006;-75
2022/04/22 01:20:46;;;;;;;;;;;;;;;12.53;49.63;99704.19;4986399;28;6985;-75
2022/04/22 01:23:13;;;;;;;;;;;;;;;12.51;49.79;99701.56;4987459;28;6792;-75
2022/04/22 01:25:39;;;;;;;;;;;;;;;12.48;50.38;99691.22;4988022;28;7002;-75
2022/04/22 01:28:06;;;;;;;;;;;;;;;12.46;49.88;99700.59;4987110;28;7195;-75
2022/04/22 01:30:32;;;;;;;;;;;;;;;12.44;50.47;99702.22;4984962;28;7134;-76
2022/04/22 01:32:58;;;;;;;;;;;;;;;12.39;50.42;99698.66;4987509;28;6945;-76
2022/04/22 01:35:25;;;;;;;;;;;;;;;12.33;50.36;99687.34;4983604;28;7267;-76
2022/04/22 01:37:51;;;;;;;;;;;;;;;12.30;50.75;99692.41;4969352;28;6789;-76
2022/04/22 01:40:18;;;;;;;;;;;;;;;12.25;50.38;99699.09;4983624;28;7709;-76
2022/04/22 01:42:44;;;;;;;;;;;;;;;12.22;50.86;99702.47;4999523;28;7839;-76
2022/04/22 01:45:14;;;;;;;;;;;;;;;12.19;51.00;99697.22;4982484;28;7279;-76
2022/04/22 01:47:40;;;;;;;;;;;;;;;12.15;50.80;99700.53;4972093;28;6868;-76
2022/04/22 01:50:09;;;;;;;;;;;;;;;12.13;51.40;99694.50;5001860;28;8236;-76
2022/04/22 01:52:39;;;;;;;;;;;;;;;12.12;51.48;99694.44;4967449;28;8033;-76
2022/04/22 01:55:05;;;;;;;;;;;;;;;12.10;50.89;99696.94;5002300;28;7390;-76
2022/04/22 01:57:31;;;;;;;;;;;;;;;12.08;51.04;99693.47;4984563;28;6991;-76
2022/04/22 01:59:59;;;;;;;;;;;;;;;12.08;51.63;99696.03;5002823;28;6800;-76
2022/04/22 02:02:25;;;;;;;;;;;;;;;12.06;51.31;99697.69;5001906;28;7190;-76
2022/04/22 02:04:50;;;;;;;;;;;;;;;12.04;51.70;99700.19;4988914;28;7185;-76
2022/04/22 02:07:16;;;;;;;;;;;;;;;12.05;51.54;99704.50;4986543;28;6860;-74
2022/04/22 02:09:42;;;;;;;;;;;;;;;12.05;52.17;99699.38;5001569;28;6886;-74
2022/04/22 02:12:08;;;;;;;;;;;;;;;12.06;51.71;99695.97;4984475;28;6803;-74
2022/04/22 02:14:34;;;;;;;;;;;;;;;12.05;52.15;99694.22;4988035;28;6872;-74
2022/04/22 02:17:00;;;;;;;;;;;;;;;12.07;52.15;99692.59;4985322;28;7317;-75
2022/04/22 02:19:26;;;;;;;;;;;;;;;12.07;52.04;99690.03;5003641;28;6792;-75
2022/04/22 02:21:52;;;;;;;;;;;;;;;12.08;52.34;99686.63;4988706;28;6788;-75
2022/04/22 02:24:18;;;;;;;;;;;;;;;12.10;52.73;99694.38;4986062;28;7002;-75
2022/04/22 02:29:29;;;;;;;;;;;;;;;12.18;52.80;99686.91;4970352;28;7223;-75
2022/04/22 02:31:55;;;;;;;;;;;;;;;12.22;52.99;99683.59;4968251;28;6971;-75
2022/04/22 02:34:23;;;;;;;;;;;;;;;12.27;53.13;99678.59;4983004;28;6819;-75
2022/04/22 02:36:50;;;;;;;;;;;;;;;12.32;52.92;99669.34;5000634;28;6812;-75
2022/04/22 02:39:17;;;;;;;;;;;;;;;12.35;52.35;99667.72;4984617;28;6808;-75
2022/04/22 02:47:11;;;;;;;;;;;;;;;12.44;52.68;99669.69;4982863;28;6808;-75
2022/04/22 02:49:38;;;;;;;;;;;;;;;12.45;52.79;99670.53;4981800;28;7947;-75
2022/04/22 02:52:05;;;;;;;;;;;;;;;12.50;53.43;99669.00;4980936;28;7268;-75
2022/04/22 02:54:30;;;;;;;;;;;;;;;12.52;53.31;99667.31;4985962;28;7216;-75
2022/04/22 02:56:57;;;;;;;;;;;;;;;12.56;53.29;99664.03;4999135;28;6780;-75
2022/04/22 02:59:24;;;;;;;;;;;;;;;12.58;53.14;99667.50;4982349;28;6804;-75
2022/04/22 03:01:50;;;;;;;;;;;;;;;12.61;53.46;99666.72;4981865;28;6893;-75
2022/04/22 03:04:16;;;;;;;;;;;;;;;12.60;52.87;99665.84;4981934;28;7137;-75
2022/04/22 03:06:42;;;;;;;;;;;;;;;12.60;53.04;99671.00;4981574;28;6788;-75
2022/04/22 03:09:08;;;;;;;;;;;;;;;12.61;53.04;99657.31;4983464;28;7146;-75
2022/04/22 03:11:34;;;;;;;;;;;;;;;12.62;53.42;99664.19;4982792;28;7266;-75
2022/04/22 03:14:03;;;;;;;;;;;;;;;12.62;53.24;99664.19;4979629;28;7864;-75
2022/04/22 03:16:29;;;;;;;;;;;;;;;12.63;53.36;99665.06;4984050;28;6808;-75
2022/04/22 03:18:55;;;;;;;;;;;;;;;12.63;53.31;99659.94;4978462;28;7742;-75
2022/04/22 03:21:24;;;;;;;;;;;;;;;12.59;52.94;99664.09;4967992;28;6895;-75
2022/04/22 03:23:50;;;;;;;;;;;;;;;12.55;53.55;99656.28;4985131;28;6827;-75
2022/04/22 03:26:16;;;;;;;;;;;;;;;12.51;53.36;99665.59;4982346;28;6979;-75
2022/04/22 03:28:42;;;;;;;;;;;;;;;12.47;53.14;99666.34;4979566;28;6875;-75
2022/04/22 03:31:08;;;;;;;;;;;;;;;12.43;53.80;99652.53;4940716;28;7903;-75
2022/04/22 03:33:33;;;;;;;;;;;;;;;12.41;53.58;99653.31;4967199;28;6951;-75
2022/04/22 03:35:59;;;;;;;;;;;;;;;12.36;53.47;99648.91;4987324;28;6926;-75
2022/04/22 03:38:27;;;;;;;;;;;;;;;12.33;53.81;99645.38;4984713;28;6818;-75
2022/04/22 03:40:53;;;;;;;;;;;;;;;12.29;53.68;99648.69;4968096;28;7034;-75
2022/04/22 03:43:22;;;;;;;;;;;;;;;12.28;53.73;99654.66;4985017;28;6961;-75
2022/04/22 03:45:48;;;;;;;;;;;;;;;12.25;54.05;99652.84;4984210;28;6882;-75
2022/04/22 03:48:14;;;;;;;;;;;;;;;12.24;54.15;99658.81;4984414;28;6804;-74
2022/04/22 03:50:41;;;;;;;;;;;;;;;12.22;54.12;99661.38;4963981;28;7600;-75
2022/04/22 03:53:11;;;;;;;;;;;;;;;12.20;53.57;99649.28;4981312;28;6792;-75
2022/04/22 03:55:39;;;;;;;;;;;;;;;12.17;53.93;99644.06;4985969;28;7455;-75
2022/04/22 03:58:11;;;;;;;;;;;;;;;12.15;54.30;99651.72;4983579;28;6799;-75
2022/04/22 04:00:48;;;;;;;;;;;;;;;12.13;54.12;99650.81;4994718;28;7133;-75
2022/04/22 04:03:23;;;;;;;;;;;;;;;12.09;54.21;99648.97;4981384;28;7162;-75
2022/04/22 04:05:51;;;;;;;;;;;;;;;12.07;54.11;99642.91;4981858;28;6963;-75
2022/04/22 04:08:24;;;;;;;;;;;;;;;12.04;54.57;99646.25;4958909;28;8229;-75
2022/04/22 04:16:21;;;;;;;;;;;;;;;11.97;54.33;99636.59;4965246;28;8241;-75
2022/04/22 04:18:46;;;;;;;;;;;;;;;11.95;54.40;99635.69;4992988;28;6796;-75
2022/04/22 04:23:57;;;;;;;;;;;;;;;11.91;54.21;99644.13;4998913;28;6824;-75
2022/04/22 04:26:25;;;;;;;;;;;;;;;11.89;54.43;99643.22;4971838;28;6792;-75
2022/04/22 04:28:53;;;;;;;;;;;;;;;11.87;54.86;99639.69;4987943;28;7141;-75
2022/04/22 04:31:20;;;;;;;;;;;;;;;11.87;55.12;99637.13;4985812;28;7031;-75
2022/04/22 04:33:49;;;;;;;;;;;;;;;11.88;55.25;99636.31;4972482;28;7308;-75
2022/04/22 04:36:15;;;;;;;;;;;;;;;11.88;55.07;99636.31;4985986;28;8029;-75
2022/04/22 04:38:42;;;;;;;;;;;;;;;11.89;55.06;99644.06;4989168;28;6799;-75
2022/04/22 04:41:09;;;;;;;;;;;;;;;11.89;54.99;99638.94;4986705;28;6804;-75
2022/04/22 04:43:38;;;;;;;;;;;;;;;11.91;55.18;99633.84;4967790;28;7302;-75
2022/04/22 04:46:04;;;;;;;;;;;;;;;11.93;55.30;99629.63;4987742;28;7293;-75
2022/04/22 04:48:30;;;;;;;;;;;;;;;11.94;55.21;99632.25;4970114;28;8131;-76
2022/04/22 04:50:55;;;;;;;;;;;;;;;11.97;55.22;99636.59;4988481;28;6784;-75
2022/04/22 04:53:25;;;;;;;;;;;;;;;11.99;55.06;99634.06;4982372;28;7134;-75
2022/04/22 04:55:52;;;;;;;;;;;;;;;12.01;55.28;99632.41;4986067;28;6986;-75
2022/04/22 04:58:20;;;;;;;;;;;;;;;12.02;55.18;99629.94;4968379;28;6870;-75
2022/04/22 05:00:47;;;;;;;;;;;;;;;12.05;55.15;99632.59;4986795;28;6807;-75
2022/04/22 05:03:12;;;;;;;;;;;;;;;12.07;55.48;99633.53;4987389;28;7165;-75
2022/04/22 05:05:38;;;;;;;;;;;;;;;12.10;55.46;99626.72;4988385;28;6788;-75
2022/04/22 05:08:06;;;;;;;;;;;;;;;12.13;55.27;99631.94;4986464;28;6994;-75
2022/04/22 05:10:34;;;;;;;;;;;;;;;12.15;55.31;99635.44;4963675;28;6927;-75
2022/04/22 05:13:01;;;;;;;;;;;;;;;12.19;55.62;99633.00;4989079;28;7018;-75
2022/04/22 05:15:29;;;;;;;;;;;;;;;12.23;55.37;99633.97;4970058;28;7228;-75
2022/04/22 05:17:57;;;;;;;;;;;;;;;12.27;55.16;99637.50;5001958;28;6824;-75
2022/04/22 05:20:26;;;;;;;;;;;;;;;12.31;55.27;99636.75;4984668;28;7158;-75
2022/04/22 05:22:54;;;;;;;;;;;;;;;12.35;55.51;99639.44;4970185;28;7075;-75
2022/04/22 05:25:22;;;;;;;;;;;;;;;12.38;55.25;99633.53;4968670;28;7075;-75
2022/04/22 05:27:48;;;;;;;;;;;;;;;12.44;55.68;99637.97;4988845;28;6800;-75
2022/04/22 05:33:03;;;;;;;;;;;;;;;12.56;55.29;99643.47;4985722;28;6963;-75
2022/04/22 05:35:29;;;;;;;;;;;;;;;12.65;55.70;99645.41;4984089;28;6820;-75
2022/04/22 05:37:58;;;;;;;;;;;;;;;12.72;55.64;99641.31;4988494;28;6796;-75
2022/04/22 05:40:27;;;;;;;;;;;;;;;12.79;55.84;99635.50;4966383;28;6816;-75
2022/04/22 05:42:55;;;;;;;;;;;;;;;12.86;55.06;99639.97;4963191;28;7242;-75
2022/04/22 05:45:23;;;;;;;;;;;;;;;12.92;55.14;99637.56;5003466;28;6962;-75
2022/04/22 05:47:53;;;;;;;;;;;;;;;12.98;55.30;99636.84;5002870;28;6972;-75
2022/04/22 05:50:20;;;;;;;;;;;;;;;13.05;55.17;99645.59;4985211;28;6971;-75
2022/04/22 05:52:47;;;;;;;;;;;;;;;13.13;55.81;99645.78;4970112;28;7256;-75
2022/04/22 05:55:19;;;;;;;;;;;;;;;13.20;55.50;99643.41;4986900;28;6958;-75
2022/04/22 05:57:47;;;;;;;;;;;;;;;13.30;55.18;99641.06;4986661;28;6955;-75
2022/04/22 06:00:15;;;;;;;;;;;;;;;13.39;54.64;99648.16;5004404;28;6975;-75
2022/04/22 06:02:43;;;;;;;;;;;;;;;13.47;54.95;99642.38;4984507;28;6867;-74
2022/04/22 06:05:11;;;;;;;;;;;;;;;13.58;54.66;99650.38;4984973;28;6788;-74
2022/04/22 06:07:38;;;;;;;;;;;;;;;13.66;54.48;99640.25;4986641;28;6796;-74
2022/04/22 06:12:51;;;;;;;;;;;;;;;13.83;54.32;99642.34;4984962;28;6831;-74
2022/04/22 06:15:17;;;;;;;;;;;;;;;13.94;54.15;99637.41;4981161;28;6884;-74
2022/04/22 06:17:43;;;;;;;;;;;;;;;14.02;54.04;99638.44;5003661;28;6885;-74
2022/04/22 06:20:09;;;;;;;;;;;;;;;14.10;53.58;99636.03;4985149;28;6788;-74
2022/04/22 06:22:35;;;;;;;;;;;;;;;14.14;54.40;99623.25;4987845;28;7019;-74
2022/04/22 06:25:01;;;;;;;;;;;;;;;14.19;53.61;99623.34;4985452;28;6939;-74
2022/04/22 06:27:34;;;;;;;;;;;;;;;14.23;53.40;99624.28;4987196;28;6883;-74
2022/04/22 06:30:04;;;;;;;;;;;;;;;14.27;53.70;99626.09;4985539;28;6891;-74
2022/04/22 06:32:30;;;;;;;;;;;;;;;14.30;53.34;99616.72;4987601;28;7031;-74
2022/04/22 06:34:56;;;;;;;;;;;;;;;14.37;53.18;99620.28;4985790;28;7186;-74
2022/04/22 06:37:23;;;;;;;;;;;;;;;14.44;53.05;99616.13;4999762;28;6960;-74
2022/04/22 06:48:04;;;;;;;;;;;;;;;14.72;53.09;99603.75;4982789;28;7293;-74
2022/04/22 06:50:30;;;;;;;;;;;;;;;14.80;53.00;99601.34;4966471;28;6990;-74
2022/04/22 06:52:56;;;;;;;;;;;;;;;14.86;52.88;99598.88;4983779;28;6863;-74
2022/04/22 06:55:22;;;;;;;;;;;;;;;14.94;52.13;99605.03;4984210;28;6843;-74
2022/04/22 06:57:50;;;;;;;;;;;;;;;15.01;52.06;99606.00;4986310;28;6788;-75
2022/04/22 07:00:18;;;;;;;;;;;;;;;15.08;52.42;99602.69;4980668;28;6987;-75
2022/04/22 07:02:47;;;;;;;;;;;;;;;15.12;51.96;99599.31;4960034;28;8068;-74
2022/04/22 07:05:14;;;;;;;;;;;;;;;15.21;52.08;99608.06;4966771;28;7140;-74
2022/04/22 07:07:40;;;;;;;;;;;;;;;15.28;51.92;99609.91;4969953;28;6971;-74
2022/04/22 07:10:06;;;;;;;;;;;;;;;15.36;51.46;99603.16;4985168;28;6780;-74
2022/04/22 07:12:33;;;;;;;;;;;;;;;15.44;51.67;99597.22;4984790;28;6796;-74
2022/04/22 07:15:03;;;;;;;;;;;;;;;15.51;51.17;99604.22;4985327;28;7268;-74
2022/04/22 07:17:31;;;;;;;;;;;;;;;15.58;51.13;99608.63;4980503;28;6816;-75
2022/04/22 07:19:57;;;;;;;;;;;;;;;15.66;50.38;99611.31;4982885;28;7245;-74
2022/04/22 07:22:23;;;;;;;;;;;;;;;15.75;50.73;99603.69;4984844;28;6800;-74
2022/04/22 07:24:49;;;;;;;;;;;;;;;15.85;51.01;99602.13;5000188;28;6799;-74
2022/04/22 07:27:17;;;;;;;;;;;;;;;15.96;50.14;99594.53;4983608;28;6795;-74
2022/04/22 07:29:45;;;;;;;;;;;;;;;16.03;50.09;99591.19;4982333;28;6832;-74
2022/04/22 07:32:12;;;;;;;;;;;;;;;16.09;49.45;99593.84;4965778;28;7011;-74
2022/04/22 07:34:38;;;;;;;;;;;;;;;16.16;49.42;99588.75;4984307;28;6820;-74
2022/04/22 07:37:09;;;;;;;;;;;;;;;16.24;48.86;99587.13;4985353;28;6800;-75
2022/04/22 07:39:38;;;;;;;;;;;;;;;16.31;49.08;99582.88;4969697;28;6980;-76
2022/04/22 07:42:07;;;;;;;;;;;;;;;16.38;49.15;99588.16;4982310;28;6815;-76
2022/04/22 07:47:22;;;;;;;;;;;;;;;16.59;48.46;99578.91;4985152;28;7016;-76
2022/04/22 07:49:50;;;;;;;;;;;;;;;16.65;48.58;99578.94;4987617;28;7023;-76
2022/04/22 07:52:16;;;;;;;;;;;;;;;16.74;47.80;99580.75;4983636;28;7223;-76
2022/04/22 07:54:42;;;;;;;;;;;;;;;16.80;48.22;99574.78;4969757;28;7235;-76
2022/04/22 07:57:10;;;;;;;;;;;;;;;16.88;47.82;99577.44;4987343;28;6804;-76
2022/04/22 07:59:36;;;;;;;;;;;;;;;16.97;47.86;99579.25;5001361;28;7042;-76
2022/04/22 08:02:02;;;;;;;;;;;;;;;17.03;47.45;99567.25;4986488;28;6954;-76
2022/04/22 08:04:28;;;;;;;;;;;;;;;17.11;47.71;99571.63;4986338;28;6808;-76
2022/04/22 08:06:54;;;;;;;;;;;;;;;17.17;47.68;99569.94;4984647;28;6803;-76
2022/04/22 08:09:20;;;;;;;;;;;;;;;17.26;47.56;99566.56;4985369;28;6796;-76
2022/04/22 08:11:45;;;;;;;;;;;;;;;17.37;47.11;99571.81;4986040;28;7928;-76
2022/04/22 08:14:12;;;;;;;;;;;;;;;17.48;47.30;99566.72;4985951;28;7010;-76
2022/04/22 08:16:39;;;;;;;;;;;;;;;17.58;47.10;99573.69;4986508;28;7466;-76
2022/04/22 08:19:04;;;;;;;;;;;;;;;17.65;46.68;99563.34;4968855;28;7187;-76
2022/04/22 08:21:33;;;;;;;;;;;;;;;17.69;46.31;99557.34;4985662;28;6787;-76
2022/04/22 08:24:03;;;;;;;;;;;;;;;17.71;45.69;99553.88;4966507;28;6982;-76
2022/04/22 08:26:32;;;;;;;;;;;;;;;17.71;45.78;99558.19;4969542;28;7179;-76
2022/04/22 08:28:58;;;;;;;;;;;;;;;17.75;45.91;99557.34;4986228;28;7192;-76
2022/04/22 08:31:24;;;;;;;;;;;;;;;17.88;45.80;99558.28;4959429;28;6800;-76
2022/04/22 08:33:51;;;;;;;;;;;;;;;17.95;45.53;99559.16;4986189;28;6898;-76
2022/04/22 08:36:18;;;;;;;;;;;;;;;17.97;44.81;99550.53;4969662;28;6981;-76
2022/04/22 08:38:43;;;;;;;;;;;;;;;17.97;44.89;99553.13;4985808;28;6803;-76
2022/04/22 08:41:10;;;;;;;;;;;;;;;18.01;44.71;99554.00;4996956;28;8121;-76
2022/04/22 08:43:37;;;;;;;;;;;;;;;18.07;44.69;99555.78;4981903;28;6796;-74
2022/04/22 08:46:03;;;;;;;;;;;;;;;18.13;44.80;99550.63;4982926;28;7868;-74
2022/04/22 08:51:15;;;;;;;;;;;;;;;18.25;43.99;99557.56;4980913;28;7309;-73
2022/04/22 08:53:48;;;;;;;;;;;;;;;18.29;44.28;99562.78;4981377;28;6832;-75
2022/04/22 08:56:14;;;;;;;;;;;;;;;18.26;43.31;99561.94;4968645;28;7031;-76
2022/04/22 08:58:40;;;;;;;;;;;;;;;18.20;43.49;99554.97;4985044;28;6799;-76
2022/04/22 09:01:07;;;;;;;;;;;;;;;18.18;43.68;99556.69;4965284;28;6826;-76
2022/04/22 09:03:32;;;;;;;;;;;;;;;18.22;43.86;99552.38;4981795;28;6947;-76
2022/04/22 09:06:02;;;;;;;;;;;;;;;18.27;43.73;99546.34;4982729;28;7188;-76
2022/04/22 09:08:28;;;;;;;;;;;;;;;18.38;43.68;99543.78;4985753;28;6819;-76
2022/04/22 09:10:57;;;;;;;;;;;;;;;18.48;43.87;99538.63;5000289;28;7142;-76
2022/04/22 09:13:30;;;;;;;;;;;;;;;18.58;43.90;99533.44;4972256;28;6978;-76
2022/04/22 09:15:59;;;;;;;;;;;;;;;18.74;43.61;99531.75;4985797;28;6973;-76
2022/04/22 09:18:26;;;;;;;;;;;;;;;19.03;43.35;99531.78;4981436;28;7185;-76
2022/04/22 09:20:56;;;;;;;;;;;;;;;19.26;42.44;99530.00;4987383;28;6804;-76
2022/04/22 09:23:34;;;;;;;;;;;;;;;19.62;41.80;99529.91;5002255;28;6906;-76
2022/04/22 09:26:03;;;;;;;;;;;;;;;19.84;41.87;99532.44;4985059;28;7067;-76
2022/04/22 09:28:30;;;;;;;;;;;;;;;19.89;41.12;99522.88;4984837;28;7296;-76
2022/04/22 09:31:04;;;;;;;;;;;;;;;19.82;40.40;99519.47;4982198;28;6995;-76
2022/04/22 09:33:41;;;;;;;;;;;;;;;19.68;40.06;99521.22;4982997;28;7941;-76
2022/04/22 09:44:52;;;;;;;;;;;;;;;20.01;39.09;99503.81;4971575;28;7020;-76
2022/04/22 09:47:19;;;;;;;;;;;;;;;19.87;38.75;99503.84;4982797;28;6880;-75
2022/04/22 09:49:45;;;;;;;;;;;;;;;19.66;39.45;99497.84;4969865;28;6796;-75
2022/04/22 09:52:11;;;;;;;;;;;;;;;19.48;39.34;99493.56;4966783;28;7211;-75
2022/04/22 09:54:38;;;;;;;;;;;;;;;19.40;39.48;99497.91;5003509;28;6949;-75
2022/04/22 09:57:05;;;;;;;;;;;;;;;19.48;40.59;99493.56;4986889;28;6788;-75
2022/04/22 09:59:33;;;;;;;;;;;;;;;19.97;40.68;99489.06;4988370;28;6808;-75
2022/04/22 10:02:04;;;;;;;;;;;;;;;20.67;39.43;99488.63;4999609;28;6829;-74
2022/04/22 10:04:31;;;;;;;;;;;;;;;21.03;38.41;99489.22;4981465;28;6971;-77
2022/04/22 10:07:02;;;;;;;;;;;;;;;21.13;37.92;99492.56;4987303;28;6808;-77
2022/04/22 10:09:29;;;;;;;;;;;;;;;21.11;37.01;99489.13;4984149;28;6808;-77
2022/04/22 10:11:58;;;;;;;;;;;;;;;21.05;36.89;99486.56;4986183;28;6984;-77
2022/04/22 10:14:37;;;;;;;;;;;;;;;20.98;36.64;99479.72;4984574;28;6883;-76
2022/04/22 10:17:05;;;;;;;;;;;;;;;20.95;37.37;99484.03;4985886;28;8102;-76
2022/04/22 10:19:35;;;;;;;;;;;;;;;20.92;37.55;99478.88;4984541;28;6832;-76
2022/04/22 10:22:04;;;;;;;;;;;;;;;20.90;37.01;99474.56;4999920;28;7418;-76
2022/04/22 10:24:34;;;;;;;;;;;;;;;20.86;37.53;99478.97;4982187;28;6872;-76
2022/04/22 10:27:07;;;;;;;;;;;;;;;20.87;37.52;99477.19;5000424;28;6799;-76
2022/04/22 10:29:35;;;;;;;;;;;;;;;20.93;37.53;99475.41;4985744;28;7899;-76
2022/04/22 10:32:05;;;;;;;;;;;;;;;21.05;36.74;99468.34;4984592;28;6803;-76
2022/04/22 10:34:42;;;;;;;;;;;;;;;21.07;36.29;99471.81;4969341;28;7125;-76
2022/04/22 10:37:19;;;;;;;;;;;;;;;21.08;36.31;99473.53;4985136;28;8184;-76
2022/04/22 10:39:54;;;;;;;;;;;;;;;21.12;35.75;99466.56;4985238;28;6796;-76
2022/04/22 10:42:38;;;;;;;;;;;;;;;21.09;35.97;99463.06;4984365;28;6800;-74
2022/04/22 10:47:53;;;;;;;;;;;;;;;21.26;35.98;99458.59;4984359;28;7138;-75
2022/04/22 10:50:42;;;;;;;;;;;;;;;22.03;36.73;99443.72;4987390;28;6804;-75
2022/04/22 10:53:23;;;;;;;;;;;;;;;22.97;35.15;99449.19;4985331;28;6812;-75
2022/04/22 10:55:49;;;;;;;;;;;;;;;23.42;33.90;99448.38;4983839;28;6995;-75
2022/04/22 10:58:21;;;;;;;;;;;;;;;23.37;33.93;99452.84;4965367;28;6879;-76
2022/04/22 11:00:49;;;;;;;;;;;;;;;23.07;34.08;99438.56;4980927;28;6811;-76
2022/04/22 11:03:22;;;;;;;;;;;;;;;22.76;34.14;99445.22;4959812;28;6982;-76
2022/04/22 11:05:48;;;;;;;;;;;;;;;22.53;34.70;99443.88;4982722;28;6847;-77
2022/04/22 11:08:40;;;;;;;;;;;;;;;22.26;34.70;99438.16;4983377;28;6879;-77
2022/04/22 11:11:18;;;;;;;;;;;;;;;22.02;34.88;99439.41;4982551;28;6816;-77
2022/04/22 11:13:48;;;;;;;;;;;;;;;21.85;35.19;99439.66;4967244;28;6982;-77
2022/04/22 11:16:40;;;;;;;;;;;;;;;21.83;35.86;99438.81;4985947;28;6903;-76
2022/04/22 11:19:17;;;;;;;;;;;;;;;22.09;35.56;99429.72;4982471;28;7079;-76
2022/04/22 11:21:45;;;;;;;;;;;;;;;22.33;34.59;99425.88;4998405;28;7263;-76
2022/04/22 11:24:19;;;;;;;;;;;;;;;22.53;34.49;99436.03;4985009;28;7229;-76
2022/04/22 11:26:45;;;;;;;;;;;;;;;22.65;34.26;99416.69;4986419;28;6808;-76
2022/04/22 11:29:14;;;;;;;;;;;;;;;22.68;34.06;99421.84;5002452;28;7156;-76
2022/04/22 11:31:45;;;;;;;;;;;;;;;22.60;33.85;99424.59;4985170;28;6812;-76
2022/04/22 11:34:17;;;;;;;;;;;;;;;22.61;34.24;99413.28;4984565;28;6827;-76
2022/04/22 11:36:48;;;;;;;;;;;;;;;22.70;33.72;99411.38;4962814;28;6896;-76
2022/04/22 11:39:19;;;;;;;;;;;;;;;22.72;33.86;99412.22;4986345;28;6796;-76
2022/04/22 11:42:01;;;;;;;;;;;;;;;22.79;33.59;99413.84;4970980;28;7211;-76
2022/04/22 11:44:28;;;;;;;;;;;;;;;22.84;33.24;99406.75;4986586;28;6811;-76
2022/04/22 11:46:54;;;;;;;;;;;;;;;22.72;33.43;99405.22;4984433;28;6875;-77
2022/04/22 11:49:21;;;;;;;;;;;;;;;22.51;33.75;99416.94;4976819;28;6996;-77
2022/04/22 11:51:54;;;;;;;;;;;;;;;22.39;33.38;99404.03;4980080;28;6797;-76
2022/04/22 11:54:26;;;;;;;;;;;;;;;22.57;33.99;99408.97;4980785;28;6868;-75
2022/04/22 11:56:53;;;;;;;;;;;;;;;23.37;33.97;99405.78;4967985;28;6906;-75
2022/04/22 11:59:22;;;;;;;;;;;;;;;24.43;33.16;99398.16;4998653;28;7800;-75
2022/04/22 12:10:05;;;;;;;;;;;;;;;27.51;28.14;99372.81;4981718;28;7407;-76
2022/04/22 12:12:32;;;;;;;;;;;;;;;27.51;28.04;99371.97;4959444;28;7429;-77
2022/04/22 12:15:03;;;;;;;;;;;;;;;27.41;27.38;99366.19;4997434;28;6788;-77
2022/04/22 12:17:30;;;;;;;;;;;;;;;26.87;27.35;99364.63;4983530;28;8711;-77
2022/04/22 12:19:56;;;;;;;;;;;;;;;26.27;27.51;99371.94;4977738;28;6804;-77
2022/04/22 12:22:24;;;;;;;;;;;;;;;25.57;28.56;99371.53;4981974;28;6804;-77
2022/04/22 12:25:25;;;;;;;;;;;;;;;25.20;28.87;99362.94;4965965;28;6800;-77
2022/04/22 12:28:13;;;;;;;;;;;;;;;24.63;28.69;99374.06;4981089;28;6819;-75
2022/04/22 12:30:44;;;;;;;;;;;;;;;24.00;29.06;99374.72;4977842;28;7117;-75
2022/04/22 12:33:24;;;;;;;;;;;;;;;23.62;29.62;99378.25;4983899;28;6897;-76
2022/04/22 12:36:10;;;;;;;;;;;;;;;23.40;30.39;99376.94;4964749;28;6964;-75
2022/04/22 12:38:37;;;;;;;;;;;;;;;23.30;30.67;99372.81;4983070;28;6883;-75
2022/04/22 12:41:20;;;;;;;;;;;;;;;23.68;31.31;99368.50;4963451;28;7141;-75
2022/04/22 12:43:48;;;;;;;;;;;;;;;24.24;30.88;99366.34;4986666;28;6820;-75
2022/04/22 12:52:23;;;;;;;;;;;;;;;24.19;29.53;99352.50;4989004;28;7293;-75
2022/04/22 12:54:51;;;;;;;;;;;;;;;23.86;29.96;99348.06;4989687;28;6887;-75
2022/04/22 12:57:23;;;;;;;;;;;;;;;23.61;30.41;99345.13;4972644;28;7034;-75
2022/04/22 12:59:54;;;;;;;;;;;;;;;23.37;30.42;99343.03;4990969;28;7225;-75
2022/04/22 13:02:32;;;;;;;;;;;;;;;23.22;30.36;99345.94;4987087;28;6896;-75
2022/04/22 13:05:06;;;;;;;;;;;;;;;23.04;30.60;99345.44;4989310;28;6815;-75
2022/04/22 13:07:47;;;;;;;;;;;;;;;22.92;30.65;99340.47;4989223;28;6808;-75
2022/04/22 13:10:15;;;;;;;;;;;;;;;22.92;31.28;99340.47;4988664;28;6894;-75
2022/04/22 13:12:43;;;;;;;;;;;;;;;22.97;30.95;99335.97;4972491;28;7160;-75
2022/04/22 13:15:19;;;;;;;;;;;;;;;23.22;31.08;99328.50;4960850;28;6971;-75
2022/04/22 13:17:47;;;;;;;;;;;;;;;23.53;30.58;99327.88;4973548;28;7188;-75
2022/04/22 13:20:17;;;;;;;;;;;;;;;23.69;30.33;99315.28;4987465;28;7713;-75
2022/04/22 13:22:44;;;;;;;;;;;;;;;23.83;30.78;99319.31;4988880;28;7860;-75
2022/04/22 13:25:11;;;;;;;;;;;;;;;23.85;30.18;99322.75;4972405;28;7022;-75
2022/04/22 13:27:41;;;;;;;;;;;;;;;23.78;30.74;99326.44;4988920;28;6804;-75
2022/04/22 13:30:09;;;;;;;;;;;;;;;23.81;30.44;99327.22;4987451;28;6966;-75
2022/04/22 13:32:36;;;;;;;;;;;;;;;23.77;30.48;99320.34;4971847;28;6896;-75
2022/04/22 13:35:04;;;;;;;;;;;;;;;23.58;30.48;99319.91;4966457;28;7184;-75
2022/04/22 13:37:34;;;;;;;;;;;;;;;23.39;30.98;99322.94;4988171;28;6815;-75
2022/04/22 13:40:00;;;;;;;;;;;;;;;23.21;31.49;99325.94;4980541;28;6804;-75
2022/04/22 13:42:26;;;;;;;;;;;;;;;23.05;31.09;99315.78;5001542;28;6970;-75
2022/04/22 13:53:05;;;;;;;;;;;;;;;23.66;31.51;99304.03;4987012;28;7288;-74
2022/04/22 13:55:36;;;;;;;;;;;;;;;24.12;31.17;99305.56;4986251;28;6969;-74
2022/04/22 13:58:01;;;;;;;;;;;;;;;24.62;30.64;99303.38;4967109;28;6800;-74
2022/04/22 14:00:28;;;;;;;;;;;;;;;24.93;29.65;99286.84;4983751;28;6899;-74
2022/04/22 14:02:54;;;;;;;;;;;;;;;24.89;29.84;99290.44;4984954;28;7076;-74
2022/04/22 14:05:22;;;;;;;;;;;;;;;24.71;29.85;99290.03;4984433;28;6812;-74
2022/04/22 14:07:49;;;;;;;;;;;;;;;24.75;29.47;99294.31;4984421;28;6824;-74
2022/04/22 14:10:19;;;;;;;;;;;;;;;24.63;29.23;99295.50;4968866;28;8005;-74
2022/04/22 14:12:46;;;;;;;;;;;;;;;24.32;29.62;99296.34;4985611;28;6808;-74
2022/04/22 14:15:12;;;;;;;;;;;;;;;23.96;29.34;99291.13;4967810;28;7248;-74
2022/04/22 14:17:38;;;;;;;;;;;;;;;23.69;30.20;99297.00;4985571;28;6800;-74
2022/04/22 14:20:05;;;;;;;;;;;;;;;23.53;30.16;99288.66;4984919;28;7050;-74